Juan Santamaria International Airport
MROC : rendu visible

Aérodrome :











RETROUVEZ-NOUS SUR...

 
LOGIN :

S'inscrire | Disclaimer

   EN    FR    IT 

 









Légende :    VFR   VFR Marginal   IFR   IFR Intensif   IFR Très Intensif
Visi : 
Plafond : 
>= 8 km
>= 3000ft
5 à 8 km
1000 à 3000 ft
1500m à 5 km
500 à 1000 ft
800 à 1500m
200 à 500 ft
< 800m
< 200 ft
Symboles :   Orages  Brouillard  Fortes neiges  Fortes précipitations  Vent > 20 kt






- Altitude de l'aérodrome : 3021 ft
- Code IATA : SJO


MROC - Juan Santamaria International

DERNIER METAR :
  • 132100Z 27004KT 230V300 9999 FEW015 OVC100 32/20 A3000 NOSIG

METARs EXPIRÉS :
  • 132000Z 29006KT 9999 FEW015 SCT050 OVC100 22/20 A3002 NOSIG
  • 131900Z 21006KT CAVOK 22/20 A3004 NOSIG

TAF MROC
Valide du 13 à 18h jusqu'au 14 à 18h UTC


131700Z 1318/1418 11008KT 9999 FEW035 BKN090 TX26/1417Z TN20/1410Z
TEMPO 1320/1324 25007KT RA BKN030
TEMPO 1400/1406 VRB02KT 5000 BR BKN015
FIR MHTG / Amérique du Nord



MET'MAP, la Météo Aéronautique d'un coup d'oeil ! - Copyright ORBIFLY Décembre 2007 - Disclaimer

ORBIFLY MET'MAP TEAM :

Programmation & Développement : Alexandra Zaïnal
Sur une idée originale de : Baudouin d'Aumeries
Assistance à la programmation : Marc-Olivier Méhu
Soutien technique & logistique : Manuel Goepfert

Contact : metmap@orbifly.com




SOURCES & CREDITS :

   NOAA       Earth
Advisory